Time;durP1;ratioP1;P1;durP2;ratioP2;P2;SDS_P1;SDS_P2;PMS_P1;PMS_P2;Temp;Humidity;BMP_temperature;BMP_pressure;BME280_temperature;BME280_humidity;BME280_pressure;Samples;Min_cycle;Max_cycle;Signal;HPM_P1;HPM_P2
2023/01/11 00:02:53;;;;;;;;;;;17.50;50.10;;;;;;10245713;28;956;-72
2023/01/11 00:07:48;;;;;;;;;;;17.50;50.00;;;;;;10246165;28;887;-72
2023/01/11 00:12:44;;;;;;;;;;;17.50;50.00;;;;;;10245278;28;1956;-72
2023/01/11 00:17:40;;;;;;;;;;;17.50;50.10;;;;;;10245196;28;973;-72
2023/01/11 00:22:35;;;;;;;;;;;17.50;50.00;;;;;;10245961;28;926;-72
2023/01/11 00:27:31;;;;;;;;;;;17.50;50.00;;;;;;10244895;28;816;-72
2023/01/11 00:32:26;;;;;;;;;;;17.50;50.20;;;;;;10244218;28;1957;-72
2023/01/11 00:37:21;;;;;;;;;;;17.40;50.30;;;;;;10244891;28;932;-72
2023/01/11 00:53:04;;;;;;;;;;;17.40;49.90;;;;;;10159545;28;1975;-72
2023/01/11 00:58:00;;;;;;;;;;;17.40;50.20;;;;;;10222724;28;1024;-72
2023/01/11 01:02:55;;;;;;;;;;;17.40;50.20;;;;;;10244060;28;996;-72
2023/01/11 01:07:50;;;;;;;;;;;17.40;50.10;;;;;;10243907;28;846;-72
2023/01/11 01:18:00;;;;;;;;;;;17.40;50.10;;;;;;10243262;28;608;-72
2023/01/11 01:22:55;;;;;;;;;;;17.40;50.20;;;;;;10243788;28;869;-72
2023/01/11 01:27:51;;;;;;;;;;;17.30;50.20;;;;;;10244165;28;798;-72
2023/01/11 01:32:46;;;;;;;;;;;17.40;50.20;;;;;;10243277;28;1958;-72
2023/01/11 01:37:42;;;;;;;;;;;17.40;50.10;;;;;;10243546;28;731;-72
2023/01/11 01:42:37;;;;;;;;;;;17.40;50.10;;;;;;10243240;28;886;-72
2023/01/11 01:47:32;;;;;;;;;;;17.40;50.20;;;;;;10242713;28;926;-72
2023/01/11 01:52:28;;;;;;;;;;;17.40;50.20;;;;;;10243022;28;1918;-72
2023/01/11 01:57:23;;;;;;;;;;;17.40;50.00;;;;;;10242962;28;890;-72
2023/01/11 02:02:19;;;;;;;;;;;17.40;50.10;;;;;;10243077;28;989;-72
2023/01/11 02:07:14;;;;;;;;;;;17.40;50.00;;;;;;10250860;28;898;-72
2023/01/11 02:12:09;;;;;;;;;;;17.40;50.00;;;;;;10250540;28;1965;-72
2023/01/11 02:17:05;;;;;;;;;;;17.40;50.20;;;;;;10250570;28;807;-72
2023/01/11 02:22:00;;;;;;;;;;;17.40;50.20;;;;;;10249953;28;899;-71
2023/01/11 02:26:57;;;;;;;;;;;17.40;50.20;;;;;;10250077;28;841;-72
2023/01/11 02:31:53;;;;;;;;;;;17.40;50.20;;;;;;10249163;28;1898;-72
2023/01/11 02:36:48;;;;;;;;;;;17.40;50.30;;;;;;10249114;28;1432;-72
2023/01/11 02:46:58;;;;;;;;;;;17.30;50.30;;;;;;10249373;28;644;-72
2023/01/11 02:51:53;;;;;;;;;;;17.30;50.20;;;;;;10248595;28;1981;-72
2023/01/11 02:56:49;;;;;;;;;;;17.30;50.20;;;;;;10248351;28;876;-72
2023/01/11 03:01:44;;;;;;;;;;;17.30;50.50;;;;;;10247546;28;1054;-72
2023/01/11 03:06:40;;;;;;;;;;;17.30;50.40;;;;;;10247907;28;890;-72
2023/01/11 03:16:49;;;;;;;;;;;17.30;50.40;;;;;;10246462;28;613;-72
2023/01/11 03:21:45;;;;;;;;;;;17.30;50.50;;;;;;10247984;28;810;-72
2023/01/11 03:26:40;;;;;;;;;;;17.30;50.60;;;;;;10247158;28;818;-72
2023/01/11 03:31:35;;;;;;;;;;;17.30;50.60;;;;;;10247318;28;1973;-72
2023/01/11 03:36:31;;;;;;;;;;;17.30;50.50;;;;;;10247794;28;1146;-72
2023/01/11 03:41:26;;;;;;;;;;;17.30;51.30;;;;;;10246644;28;766;-72
2023/01/11 03:46:22;;;;;;;;;;;17.30;50.60;;;;;;10246412;28;873;-72
2023/01/11 03:51:17;;;;;;;;;;;17.30;50.70;;;;;;10246136;28;1918;-72
2023/01/11 03:56:12;;;;;;;;;;;17.30;50.60;;;;;;10245470;28;822;-72
2023/01/11 04:01:08;;;;;;;;;;;17.30;50.70;;;;;;10245866;28;822;-72
2023/01/11 04:06:03;;;;;;;;;;;17.30;50.70;;;;;;10246332;28;892;-72
2023/01/11 04:10:58;;;;;;;;;;;17.30;50.80;;;;;;10245463;28;1953;-72
2023/01/11 04:15:54;;;;;;;;;;;17.30;50.80;;;;;;10246238;28;869;-72
2023/01/11 04:20:49;;;;;;;;;;;17.30;50.70;;;;;;10245170;28;774;-72
2023/01/11 04:25:45;;;;;;;;;;;17.30;50.80;;;;;;10245043;28;823;-72
2023/01/11 04:30:41;;;;;;;;;;;17.30;50.70;;;;;;10244502;28;1898;-72
2023/01/11 04:35:36;;;;;;;;;;;17.30;50.80;;;;;;10245371;28;1344;-72
2023/01/11 04:40:31;;;;;;;;;;;17.30;50.80;;;;;;10245163;28;837;-72
2023/01/11 04:45:27;;;;;;;;;;;17.30;50.80;;;;;;10244374;28;810;-72
2023/01/11 04:50:22;;;;;;;;;;;17.30;50.80;;;;;;10244155;28;1977;-72
2023/01/11 04:55:18;;;;;;;;;;;17.40;50.90;;;;;;10244247;28;937;-72
2023/01/11 05:00:14;;;;;;;;;;;17.40;50.90;;;;;;10244111;28;790;-72
2023/01/11 05:05:10;;;;;;;;;;;17.40;50.90;;;;;;10243297;28;928;-72
2023/01/11 05:10:06;;;;;;;;;;;17.40;50.90;;;;;;10243793;28;1898;-72
2023/01/11 05:15:01;;;;;;;;;;;17.40;50.90;;;;;;10243824;28;946;-72
2023/01/11 05:19:57;;;;;;;;;;;17.40;50.90;;;;;;10244947;28;853;-72
2023/01/11 05:24:52;;;;;;;;;;;17.50;50.90;;;;;;10243994;28;930;-72
2023/01/11 05:29:47;;;;;;;;;;;17.50;50.90;;;;;;10244012;28;1961;-72
2023/01/11 05:34:43;;;;;;;;;;;17.50;50.90;;;;;;10243662;28;1403;-72
2023/01/11 05:39:38;;;;;;;;;;;17.60;51.00;;;;;;10248858;28;873;-72
2023/01/11 05:49:47;;;;;;;;;;;17.60;50.80;;;;;;10251040;28;1902;-72
2023/01/11 05:54:42;;;;;;;;;;;17.70;50.90;;;;;;10250255;28;877;-72
2023/01/11 05:59:38;;;;;;;;;;;17.60;51.00;;;;;;10251187;28;825;-72
2023/01/11 06:04:33;;;;;;;;;;;17.60;51.00;;;;;;10250411;28;881;-72
2023/01/11 06:09:29;;;;;;;;;;;17.70;51.00;;;;;;10250133;28;1904;-71
2023/01/11 06:14:24;;;;;;;;;;;17.70;51.00;;;;;;10250592;28;875;-72
2023/01/11 06:19:19;;;;;;;;;;;17.70;51.10;;;;;;10250462;28;790;-70
2023/01/11 06:24:15;;;;;;;;;;;17.70;51.10;;;;;;10247358;28;1000;-68
2023/01/11 06:29:10;;;;;;;;;;;17.70;51.20;;;;;;10248583;28;1993;-69
2023/01/11 06:34:06;;;;;;;;;;;17.80;51.20;;;;;;10249192;28;1083;-69
2023/01/11 06:39:02;;;;;;;;;;;17.70;51.30;;;;;;10249100;28;898;-69
2023/01/11 06:43:57;;;;;;;;;;;17.70;52.00;;;;;;10249005;28;954;-68
2023/01/11 06:48:53;;;;;;;;;;;17.70;51.40;;;;;;10247781;28;1968;-69
2023/01/11 06:53:48;;;;;;;;;;;17.80;51.70;;;;;;10247876;28;945;-69
2023/01/11 06:58:43;;;;;;;;;;;17.70;51.60;;;;;;10248985;28;912;-69
2023/01/11 07:03:40;;;;;;;;;;;17.70;51.70;;;;;;10247667;28;775;-69
2023/01/11 07:08:37;;;;;;;;;;;17.70;51.80;;;;;;10247755;28;898;-69
2023/01/11 07:13:32;;;;;;;;;;;17.70;51.80;;;;;;10247611;28;1894;-69
2023/01/11 07:18:30;;;;;;;;;;;17.70;51.80;;;;;;10247526;28;873;-69
2023/01/11 07:23:25;;;;;;;;;;;17.70;52.00;;;;;;10244436;28;1082;-69
2023/01/11 07:28:21;;;;;;;;;;;17.70;52.10;;;;;;10247054;28;802;-69
2023/01/11 07:33:16;;;;;;;;;;;17.70;52.30;;;;;;10246550;28;1909;-69
2023/01/11 07:38:12;;;;;;;;;;;17.70;52.20;;;;;;10246763;28;786;-68
2023/01/11 07:43:13;;;;;;;;;;;17.80;52.20;;;;;;10246210;28;834;-68
2023/01/11 07:48:09;;;;;;;;;;;17.80;52.20;;;;;;10246778;28;832;-69
2023/01/11 07:53:04;;;;;;;;;;;17.80;52.30;;;;;;10246379;28;1910;-69
2023/01/11 07:58:01;;;;;;;;;;;17.80;52.20;;;;;;10246691;28;761;-69
2023/01/11 08:02:57;;;;;;;;;;;17.80;52.20;;;;;;10244901;28;891;-68
2023/01/11 08:07:52;;;;;;;;;;;17.80;52.30;;;;;;10245718;28;852;-68
2023/01/11 08:18:01;;;;;;;;;;;17.80;52.30;;;;;;10245390;28;664;-67
2023/01/11 08:22:57;;;;;;;;;;;17.80;52.30;;;;;;10245158;28;891;-70
2023/01/11 08:27:52;;;;;;;;;;;17.80;52.40;;;;;;10244989;28;917;-69
2023/01/11 08:32:47;;;;;;;;;;;17.80;53.00;;;;;;10243034;28;1910;-69
2023/01/11 08:37:43;;;;;;;;;;;17.80;52.40;;;;;;10244819;28;1008;-69
2023/01/11 08:42:38;;;;;;;;;;;17.80;52.40;;;;;;10244330;28;779;-69
2023/01/11 08:47:33;;;;;;;;;;;17.80;52.40;;;;;;10243849;28;1119;-69
2023/01/11 08:52:29;;;;;;;;;;;17.80;52.50;;;;;;10244644;28;1981;-69
2023/01/11 08:57:24;;;;;;;;;;;17.90;52.70;;;;;;10244030;28;928;-69
2023/01/11 09:02:19;;;;;;;;;;;18.00;52.90;;;;;;10243264;28;901;-69
2023/01/11 09:07:15;;;;;;;;;;;17.90;53.10;;;;;;10243791;28;935;-69
2023/01/11 09:12:10;;;;;;;;;;;18.00;53.30;;;;;;10244200;28;1914;-69
2023/01/11 09:17:06;;;;;;;;;;;17.90;53.20;;;;;;10252192;28;793;-69
2023/01/11 09:22:02;;;;;;;;;;;18.00;53.30;;;;;;10250082;28;1149;-69
2023/01/11 09:26:57;;;;;;;;;;;17.90;53.20;;;;;;10252189;28;886;-69
2023/01/11 09:31:53;;;;;;;;;;;18.00;53.20;;;;;;10251419;28;1997;-69
2023/01/11 09:36:48;;;;;;;;;;;18.00;53.10;;;;;;10251955;28;1244;-70
2023/01/11 09:41:43;;;;;;;;;;;18.00;53.20;;;;;;10251216;28;1131;-69
2023/01/11 09:46:41;;;;;;;;;;;17.90;53.40;;;;;;10250992;28;771;-71
2023/01/11 09:51:38;;;;;;;;;;;17.70;53.60;;;;;;10250310;28;1987;-71
2023/01/11 09:56:35;;;;;;;;;;;17.70;53.70;;;;;;10251644;28;781;-71
2023/01/11 10:01:33;;;;;;;;;;;17.60;53.60;;;;;;10251053;28;865;-71
2023/01/11 10:06:29;;;;;;;;;;;17.60;53.70;;;;;;10249609;28;878;-70
2023/01/11 10:11:26;;;;;;;;;;;17.60;53.60;;;;;;10250746;28;1963;-71
2023/01/11 10:16:23;;;;;;;;;;;17.60;53.60;;;;;;10250515;28;816;-72
2023/01/11 10:21:21;;;;;;;;;;;17.60;53.50;;;;;;10238334;28;1008;-71
2023/01/11 10:26:23;;;;;;;;;;;17.50;53.30;;;;;;10206556;28;897;-70
2023/01/11 10:42:01;;;;;;;;;;;17.50;53.30;;;;;;10207365;28;589;-70
2023/01/11 10:46:56;;;;;;;;;;;17.60;53.30;;;;;;10207443;28;1192;-70
2023/01/11 10:51:52;;;;;;;;;;;17.60;53.30;;;;;;10207396;28;1914;-70
2023/01/11 10:56:48;;;;;;;;;;;17.50;53.10;;;;;;10208342;28;916;-70
2023/01/11 11:01:45;;;;;;;;;;;17.50;53.10;;;;;;10207121;28;1055;-70
2023/01/11 11:06:40;;;;;;;;;;;17.50;53.10;;;;;;10207201;28;826;-70
2023/01/11 11:11:35;;;;;;;;;;;17.50;53.00;;;;;;10206150;28;1910;-70
2023/01/11 11:16:31;;;;;;;;;;;17.50;53.00;;;;;;10207489;28;915;-70
2023/01/11 11:21:27;;;;;;;;;;;17.50;53.00;;;;;;10206270;28;724;-70
2023/01/11 11:26:22;;;;;;;;;;;17.50;53.00;;;;;;10206569;28;771;-70
2023/01/11 11:31:18;;;;;;;;;;;17.60;53.00;;;;;;10205289;28;1906;-71
2023/01/11 11:36:13;;;;;;;;;;;17.50;53.00;;;;;;10205411;28;1301;-73
2023/01/11 11:41:08;;;;;;;;;;;17.50;52.90;;;;;;10205577;28;849;-73
2023/01/11 11:46:04;;;;;;;;;;;17.60;53.00;;;;;;10206395;28;731;-72
2023/01/11 11:51:00;;;;;;;;;;;17.50;53.40;;;;;;10224185;28;1910;-72
2023/01/11 11:55:55;;;;;;;;;;;17.60;53.00;;;;;;10245600;28;865;-73
2023/01/11 12:00:51;;;;;;;;;;;17.50;52.80;;;;;;10245348;28;766;-73
2023/01/11 12:05:46;;;;;;;;;;;17.60;52.90;;;;;;10245441;28;770;-72
2023/01/11 12:10:41;;;;;;;;;;;17.60;52.80;;;;;;10245082;28;1902;-72
2023/01/11 12:15:37;;;;;;;;;;;17.60;52.80;;;;;;10245617;28;878;-72
2023/01/11 12:20:32;;;;;;;;;;;17.60;52.80;;;;;;10244952;28;801;-73
2023/01/11 12:25:27;;;;;;;;;;;17.60;52.60;;;;;;10244634;28;882;-72
2023/01/11 12:30:23;;;;;;;;;;;17.60;52.50;;;;;;10244547;28;1906;-72
2023/01/11 12:35:18;;;;;;;;;;;17.60;52.50;;;;;;10244142;28;1400;-73
2023/01/11 12:40:13;;;;;;;;;;;17.60;52.50;;;;;;10244337;28;787;-72
2023/01/11 12:45:09;;;;;;;;;;;17.60;52.50;;;;;;10244063;28;909;-74
2023/01/11 12:50:04;;;;;;;;;;;17.60;52.40;;;;;;10243326;28;1914;-73
2023/01/11 12:55:00;;;;;;;;;;;17.60;52.40;;;;;;10243827;28;782;-72
2023/01/11 12:59:56;;;;;;;;;;;17.60;52.40;;;;;;10243342;28;895;-73
2023/01/11 13:04:51;;;;;;;;;;;17.60;52.40;;;;;;10243705;28;786;-72
2023/01/11 13:09:46;;;;;;;;;;;17.70;52.40;;;;;;10243062;28;1907;-74
2023/01/11 13:14:42;;;;;;;;;;;17.70;52.30;;;;;;10243689;28;882;-73
2023/01/11 13:19:37;;;;;;;;;;;17.70;52.20;;;;;;10244182;28;1027;-74
2023/01/11 13:24:33;;;;;;;;;;;17.70;52.10;;;;;;10243646;28;839;-73
2023/01/11 13:29:28;;;;;;;;;;;17.80;52.00;;;;;;10243561;28;1914;-73
2023/01/11 13:34:23;;;;;;;;;;;17.90;52.00;;;;;;10243394;28;1165;-73
2023/01/11 13:39:19;;;;;;;;;;;17.90;51.80;;;;;;10243435;28;872;-73
2023/01/11 13:44:14;;;;;;;;;;;18.00;51.70;;;;;;10242922;28;897;-73
2023/01/11 13:49:09;;;;;;;;;;;18.00;51.70;;;;;;10243110;28;1918;-73
2023/01/11 13:54:06;;;;;;;;;;;18.00;51.60;;;;;;10242072;28;1104;-74
2023/01/11 13:59:02;;;;;;;;;;;18.10;51.60;;;;;;10244854;28;910;-73
2023/01/11 14:03:57;;;;;;;;;;;18.10;51.60;;;;;;10250058;28;1063;-74
2023/01/11 14:08:52;;;;;;;;;;;18.00;51.60;;;;;;10250123;28;886;-74
2023/01/11 14:19:02;;;;;;;;;;;17.90;51.70;;;;;;10249440;28;565;-73
2023/01/11 14:23:57;;;;;;;;;;;17.90;51.70;;;;;;10249054;28;863;-74
2023/01/11 14:28:53;;;;;;;;;;;17.80;51.70;;;;;;10248915;28;854;-74
2023/01/11 14:33:48;;;;;;;;;;;17.80;51.70;;;;;;10248536;28;1914;-74
2023/01/11 14:38:43;;;;;;;;;;;17.80;51.90;;;;;;10248906;28;898;-73
2023/01/11 14:43:39;;;;;;;;;;;17.70;51.80;;;;;;10249402;28;825;-73
2023/01/11 14:48:34;;;;;;;;;;;17.70;51.70;;;;;;10249165;28;795;-73
2023/01/11 14:53:30;;;;;;;;;;;17.70;51.80;;;;;;10248891;28;1979;-73
2023/01/11 14:58:25;;;;;;;;;;;17.70;51.70;;;;;;10248750;28;884;-73
2023/01/11 15:03:21;;;;;;;;;;;17.70;51.70;;;;;;10246335;28;1114;-73
2023/01/11 15:08:16;;;;;;;;;;;17.70;51.60;;;;;;10247625;28;834;-73
2023/01/11 15:13:11;;;;;;;;;;;17.70;51.60;;;;;;10247021;28;1913;-73
2023/01/11 15:18:16;;;;;;;;;;;17.70;51.50;;;;;;10248408;28;837;-73
2023/01/11 15:23:11;;;;;;;;;;;17.70;51.50;;;;;;10247610;28;889;-76
2023/01/11 15:28:07;;;;;;;;;;;17.70;51.50;;;;;;10247195;28;784;-77
2023/01/11 15:33:02;;;;;;;;;;;17.70;51.40;;;;;;10246920;28;1969;-76
2023/01/11 15:37:57;;;;;;;;;;;17.70;51.40;;;;;;10247205;28;859;-76
2023/01/11 15:42:53;;;;;;;;;;;17.70;51.30;;;;;;10246381;28;795;-74
2023/01/11 15:47:48;;;;;;;;;;;17.70;51.30;;;;;;10246676;28;873;-73
2023/01/11 15:52:49;;;;;;;;;;;17.70;51.30;;;;;;10245873;28;1973;-75
2023/01/11 15:57:44;;;;;;;;;;;17.70;51.30;;;;;;10246547;28;879;-73
2023/01/11 16:02:39;;;;;;;;;;;17.70;51.20;;;;;;10246318;28;853;-75
2023/01/11 16:07:35;;;;;;;;;;;17.70;51.20;;;;;;10245489;28;810;-73
2023/01/11 16:12:30;;;;;;;;;;;17.60;51.20;;;;;;10245220;28;1959;-73
2023/01/11 16:17:26;;;;;;;;;;;17.70;51.20;;;;;;10244520;28;999;-73
2023/01/11 16:22:23;;;;;;;;;;;17.70;51.20;;;;;;10245525;28;930;-74
2023/01/11 16:27:19;;;;;;;;;;;17.70;51.10;;;;;;10244753;28;969;-73
2023/01/11 16:32:14;;;;;;;;;;;17.70;51.00;;;;;;10244347;28;1902;-74
2023/01/11 16:37:10;;;;;;;;;;;17.70;51.10;;;;;;10245927;28;861;-74
2023/01/11 16:42:05;;;;;;;;;;;17.70;51.10;;;;;;10244310;28;818;-74
2023/01/11 16:47:00;;;;;;;;;;;17.60;51.10;;;;;;10244257;28;757;-73
2023/01/11 16:51:56;;;;;;;;;;;17.70;51.10;;;;;;10244021;28;1910;-73
2023/01/11 16:56:51;;;;;;;;;;;17.70;51.00;;;;;;10243952;28;930;-74
2023/01/11 17:01:46;;;;;;;;;;;17.70;51.00;;;;;;10244493;28;1046;-74
2023/01/11 17:06:42;;;;;;;;;;;17.70;50.90;;;;;;10245025;28;957;-74
2023/01/11 17:11:38;;;;;;;;;;;17.70;50.80;;;;;;10244256;28;1891;-74
2023/01/11 17:16:33;;;;;;;;;;;17.70;50.90;;;;;;10244258;28;829;-73
2023/01/11 17:21:28;;;;;;;;;;;17.70;50.90;;;;;;10243503;28;794;-77
2023/01/11 17:26:24;;;;;;;;;;;17.70;50.80;;;;;;10243021;28;916;-74
2023/01/11 17:31:19;;;;;;;;;;;17.70;50.60;;;;;;10243135;28;1959;-73
2023/01/11 17:36:15;;;;;;;;;;;17.70;50.60;;;;;;10248339;28;1260;-74
2023/01/11 17:45:11;;;;;;;;;;;17.70;50.50;;;;;;10251102;28;881;-74
2023/01/11 17:46:28;;;;;;;;;;;17.60;50.30;;;;;;10250375;28;1696;-75
2023/01/11 17:51:24;;;;;;;;;;;17.70;50.50;;;;;;10250689;28;1963;-74
2023/01/11 17:56:19;;;;;;;;;;;17.70;50.50;;;;;;10250472;28;850;-75
2023/01/11 18:01:16;;;;;;;;;;;17.60;51.10;;;;;;10250955;28;750;-74
2023/01/11 18:06:11;;;;;;;;;;;17.70;50.40;;;;;;10250170;28;873;-74
2023/01/11 18:11:07;;;;;;;;;;;17.60;50.10;;;;;;10249954;28;1965;-74
2023/01/11 18:16:02;;;;;;;;;;;17.60;50.20;;;;;;10249730;28;901;-75
2023/01/11 18:20:57;;;;;;;;;;;17.60;50.30;;;;;;10249627;28;928;-74
2023/01/11 18:25:53;;;;;;;;;;;17.70;50.30;;;;;;10249497;28;865;-74
2023/01/11 18:30:52;;;;;;;;;;;17.70;50.20;;;;;;10248625;28;1902;-75
2023/01/11 18:35:47;;;;;;;;;;;17.70;50.20;;;;;;10249087;28;1336;-73
2023/01/11 18:40:43;;;;;;;;;;;17.70;50.20;;;;;;10249637;28;920;-75
2023/01/11 18:45:39;;;;;;;;;;;17.60;50.10;;;;;;10246950;28;893;-74
2023/01/11 18:50:35;;;;;;;;;;;17.70;50.10;;;;;;10248396;28;1918;-74
2023/01/11 18:55:30;;;;;;;;;;;17.70;50.00;;;;;;10247753;28;1031;-73
2023/01/11 19:00:26;;;;;;;;;;;17.70;49.90;;;;;;10248809;28;908;-73
2023/01/11 19:05:21;;;;;;;;;;;17.70;49.70;;;;;;10249185;28;904;-74
2023/01/11 19:10:16;;;;;;;;;;;17.70;49.70;;;;;;10248337;28;1910;-74
2023/01/11 19:15:12;;;;;;;;;;;17.60;49.70;;;;;;10247565;28;860;-73
2023/01/11 19:20:12;;;;;;;;;;;17.70;49.90;;;;;;10247461;28;867;-72
2023/01/11 19:25:08;;;;;;;;;;;17.80;50.30;;;;;;10247290;28;966;-72
2023/01/11 19:30:03;;;;;;;;;;;18.00;50.40;;;;;;10248106;28;1969;-72
2023/01/11 19:34:59;;;;;;;;;;;18.10;50.30;;;;;;10246967;28;1343;-72
2023/01/11 19:39:54;;;;;;;;;;;18.10;50.30;;;;;;10247221;28;849;-72
2023/01/11 19:44:50;;;;;;;;;;;18.20;50.10;;;;;;10246759;28;889;-72
2023/01/11 19:49:45;;;;;;;;;;;18.20;50.20;;;;;;10247059;28;1969;-72
2023/01/11 19:54:41;;;;;;;;;;;18.20;50.00;;;;;;10245775;28;935;-72
2023/01/11 19:59:36;;;;;;;;;;;18.20;49.90;;;;;;10246479;28;775;-72
2023/01/11 20:04:31;;;;;;;;;;;18.20;50.00;;;;;;10246520;28;942;-72
2023/01/11 20:09:27;;;;;;;;;;;18.20;50.00;;;;;;10246332;28;1906;-72
2023/01/11 20:14:22;;;;;;;;;;;18.20;49.80;;;;;;10245150;28;783;-71
2023/01/11 20:19:17;;;;;;;;;;;18.20;49.60;;;;;;10245466;28;855;-72
2023/01/11 20:24:13;;;;;;;;;;;18.20;49.80;;;;;;10246612;28;886;-72
2023/01/11 20:29:08;;;;;;;;;;;18.20;49.40;;;;;;10245278;28;953;-72
2023/01/11 20:34:10;;;;;;;;;;;18.20;49.80;;;;;;10244592;28;1891;-72
2023/01/11 20:39:06;;;;;;;;;;;18.20;49.80;;;;;;10245840;28;812;-72
2023/01/11 20:44:01;;;;;;;;;;;18.20;49.60;;;;;;10244639;28;821;-72
2023/01/11 20:48:56;;;;;;;;;;;18.20;49.60;;;;;;10245163;28;969;-72
2023/01/11 20:53:52;;;;;;;;;;;18.20;49.50;;;;;;10245041;28;1910;-72
2023/01/11 20:58:49;;;;;;;;;;;18.20;49.40;;;;;;10244451;28;884;-72
2023/01/11 21:03:45;;;;;;;;;;;18.20;49.40;;;;;;10244754;28;901;-72
2023/01/11 21:08:40;;;;;;;;;;;18.10;49.30;;;;;;10244310;28;881;-72
2023/01/11 21:13:36;;;;;;;;;;;18.10;49.10;;;;;;10243839;28;1902;-72
2023/01/11 21:18:31;;;;;;;;;;;18.10;49.20;;;;;;10243926;28;790;-72
2023/01/11 21:23:26;;;;;;;;;;;18.10;49.10;;;;;;10243826;28;758;-72
2023/01/11 21:28:22;;;;;;;;;;;18.00;49.20;;;;;;10243732;28;902;-72
2023/01/11 21:33:18;;;;;;;;;;;18.00;49.10;;;;;;10244066;28;1967;-72
2023/01/11 21:38:13;;;;;;;;;;;18.00;49.30;;;;;;10243601;28;1685;-72
2023/01/11 21:43:12;;;;;;;;;;;18.00;49.20;;;;;;10244088;28;939;-72
2023/01/11 21:48:07;;;;;;;;;;;18.00;49.20;;;;;;10243338;28;805;-72
2023/01/11 21:53:03;;;;;;;;;;;18.00;49.20;;;;;;10243126;28;1971;-72
2023/01/11 21:57:58;;;;;;;;;;;18.00;49.30;;;;;;10243767;28;794;-72
2023/01/11 22:02:55;;;;;;;;;;;17.90;49.20;;;;;;10243736;28;930;-72
2023/01/11 22:07:50;;;;;;;;;;;18.00;49.50;;;;;;10243017;28;863;-72
2023/01/11 22:12:45;;;;;;;;;;;18.00;49.60;;;;;;10243360;28;1947;-72
2023/01/11 22:17:41;;;;;;;;;;;18.00;49.60;;;;;;10242841;28;802;-72
2023/01/11 22:22:36;;;;;;;;;;;17.90;49.30;;;;;;10247975;28;840;-72
2023/01/11 22:27:32;;;;;;;;;;;17.90;49.60;;;;;;10249693;28;977;-72
2023/01/11 22:32:27;;;;;;;;;;;17.90;49.60;;;;;;10249244;28;1902;-72
2023/01/11 22:37:22;;;;;;;;;;;17.90;49.30;;;;;;10249489;28;908;-72
2023/01/11 22:42:18;;;;;;;;;;;17.90;49.40;;;;;;10250317;28;811;-72
2023/01/11 22:47:13;;;;;;;;;;;17.90;49.50;;;;;;10249077;28;781;-72
2023/01/11 22:52:08;;;;;;;;;;;17.80;49.60;;;;;;10248836;28;1991;-72
2023/01/11 22:57:04;;;;;;;;;;;17.80;50.10;;;;;;10248735;28;783;-72
2023/01/11 23:01:59;;;;;;;;;;;17.80;49.40;;;;;;10248672;28;954;-72
2023/01/11 23:06:56;;;;;;;;;;;17.80;49.40;;;;;;10248870;28;774;-72
2023/01/11 23:17:09;;;;;;;;;;;17.80;49.40;;;;;;10247437;28;712;-72
2023/01/11 23:22:04;;;;;;;;;;;17.80;49.50;;;;;;10248285;28;841;-72
2023/01/11 23:27:00;;;;;;;;;;;17.80;49.60;;;;;;10247486;28;1263;-72
2023/01/11 23:31:55;;;;;;;;;;;17.80;49.50;;;;;;10246587;28;1898;-72
2023/01/11 23:36:50;;;;;;;;;;;17.80;49.60;;;;;;10248220;28;1268;-72
2023/01/11 23:42:31;;;;;;;;;;;17.80;49.60;;;;;;10246950;28;883;-72
2023/01/11 23:47:19;;;;;;;;;;;17.80;49.70;;;;;;10239265;28;1762;-72
2023/01/11 23:52:15;;;;;;;;;;;17.80;49.70;;;;;;10247310;28;1910;-72
2023/01/11 23:57:11;;;;;;;;;;;17.80;49.60;;;;;;10246840;28;882;-72
